sensor_id;sensor_type;location;lat;lon;timestamp;P1;durP1;ratioP1;P2;durP2;ratioP2
30247;SDS011;17063;50.892;4.702;2024-03-08T00:00:11;21.97;;;10.73;;
30247;SDS011;17063;50.892;4.702;2024-03-08T00:02:42;19.80;;;10.30;;
30247;SDS011;17063;50.892;4.702;2024-03-08T00:05:09;20.43;;;10.50;;
30247;SDS011;17063;50.892;4.702;2024-03-08T00:07:37;21.30;;;10.70;;
30247;SDS011;17063;50.892;4.702;2024-03-08T00:10:04;25.47;;;12.10;;
30247;SDS011;17063;50.892;4.702;2024-03-08T00:12:34;25.30;;;10.83;;
30247;SDS011;17063;50.892;4.702;2024-03-08T00:15:01;22.43;;;11.53;;
30247;SDS011;17063;50.892;4.702;2024-03-08T00:17:28;24.03;;;10.73;;
30247;SDS011;17063;50.892;4.702;2024-03-08T00:19:55;24.33;;;11.50;;
30247;SDS011;17063;50.892;4.702;2024-03-08T00:22:24;19.67;;;10.70;;
30247;SDS011;17063;50.892;4.702;2024-03-08T00:24:50;23.07;;;11.00;;
30247;SDS011;17063;50.892;4.702;2024-03-08T00:27:18;23.50;;;11.17;;
30247;SDS011;17063;50.892;4.702;2024-03-08T00:29:47;22.50;;;11.03;;
30247;SDS011;17063;50.892;4.702;2024-03-08T00:32:15;22.33;;;10.40;;
30247;SDS011;17063;50.892;4.702;2024-03-08T00:34:43;21.47;;;11.37;;
30247;SDS011;17063;50.892;4.702;2024-03-08T00:37:10;23.73;;;12.77;;
30247;SDS011;17063;50.892;4.702;2024-03-08T00:39:37;21.87;;;11.37;;
30247;SDS011;17063;50.892;4.702;2024-03-08T00:42:04;25.67;;;12.60;;
30247;SDS011;17063;50.892;4.702;2024-03-08T00:44:31;26.53;;;12.03;;
30247;SDS011;17063;50.892;4.702;2024-03-08T00:46:58;24.07;;;11.13;;
30247;SDS011;17063;50.892;4.702;2024-03-08T00:49:26;26.00;;;11.60;;
30247;SDS011;17063;50.892;4.702;2024-03-08T00:51:53;24.43;;;11.40;;
30247;SDS011;17063;50.892;4.702;2024-03-08T00:54:20;29.40;;;12.70;;
30247;SDS011;17063;50.892;4.702;2024-03-08T00:56:48;25.03;;;12.17;;
30247;SDS011;17063;50.892;4.702;2024-03-08T00:59:15;25.93;;;12.70;;
30247;SDS011;17063;50.892;4.702;2024-03-08T01:01:42;26.03;;;13.47;;
30247;SDS011;17063;50.892;4.702;2024-03-08T01:04:10;21.53;;;11.10;;
30247;SDS011;17063;50.892;4.702;2024-03-08T01:06:38;24.73;;;12.23;;
30247;SDS011;17063;50.892;4.702;2024-03-08T01:09:05;21.47;;;11.93;;
30247;SDS011;17063;50.892;4.702;2024-03-08T01:11:34;23.33;;;12.10;;
30247;SDS011;17063;50.892;4.702;2024-03-08T01:14:01;24.40;;;12.63;;
30247;SDS011;17063;50.892;4.702;2024-03-08T01:16:28;24.77;;;11.50;;
30247;SDS011;17063;50.892;4.702;2024-03-08T01:18:55;24.50;;;11.23;;
30247;SDS011;17063;50.892;4.702;2024-03-08T01:21:23;22.37;;;11.97;;
30247;SDS011;17063;50.892;4.702;2024-03-08T01:23:49;22.13;;;12.47;;
30247;SDS011;17063;50.892;4.702;2024-03-08T01:26:17;23.67;;;12.23;;
30247;SDS011;17063;50.892;4.702;2024-03-08T01:28:44;23.83;;;11.57;;
30247;SDS011;17063;50.892;4.702;2024-03-08T01:31:11;22.13;;;11.87;;
30247;SDS011;17063;50.892;4.702;2024-03-08T01:33:38;24.20;;;12.40;;
30247;SDS011;17063;50.892;4.702;2024-03-08T01:36:07;23.63;;;12.70;;
30247;SDS011;17063;50.892;4.702;2024-03-08T01:38:34;21.53;;;11.90;;
30247;SDS011;17063;50.892;4.702;2024-03-08T01:41:01;29.23;;;13.07;;
30247;SDS011;17063;50.892;4.702;2024-03-08T01:43:28;21.53;;;11.80;;
30247;SDS011;17063;50.892;4.702;2024-03-08T01:45:59;25.30;;;12.90;;
30247;SDS011;17063;50.892;4.702;2024-03-08T01:48:26;23.93;;;12.33;;
30247;SDS011;17063;50.892;4.702;2024-03-08T01:50:55;25.30;;;13.07;;
30247;SDS011;17063;50.892;4.702;2024-03-08T01:53:26;28.20;;;13.30;;
30247;SDS011;17063;50.892;4.702;2024-03-08T01:55:56;25.30;;;12.97;;
30247;SDS011;17063;50.892;4.702;2024-03-08T01:58:24;26.03;;;12.13;;
30247;SDS011;17063;50.892;4.702;2024-03-08T02:00:56;21.57;;;12.43;;
30247;SDS011;17063;50.892;4.702;2024-03-08T02:03:24;24.80;;;12.57;;
30247;SDS011;17063;50.892;4.702;2024-03-08T02:05:51;21.97;;;12.60;;
30247;SDS011;17063;50.892;4.702;2024-03-08T02:08:19;29.50;;;13.67;;
30247;SDS011;17063;50.892;4.702;2024-03-08T02:10:49;23.13;;;12.97;;
30247;SDS011;17063;50.892;4.702;2024-03-08T02:13:16;23.27;;;12.30;;
30247;SDS011;17063;50.892;4.702;2024-03-08T02:18:20;23.90;;;12.57;;
30247;SDS011;17063;50.892;4.702;2024-03-08T02:20:52;26.33;;;12.60;;
30247;SDS011;17063;50.892;4.702;2024-03-08T02:23:19;22.50;;;12.63;;
30247;SDS011;17063;50.892;4.702;2024-03-08T02:25:47;26.90;;;13.97;;
30247;SDS011;17063;50.892;4.702;2024-03-08T02:28:14;23.83;;;12.43;;
30247;SDS011;17063;50.892;4.702;2024-03-08T02:30:41;27.03;;;13.63;;
30247;SDS011;17063;50.892;4.702;2024-03-08T02:33:08;22.90;;;12.93;;
30247;SDS011;17063;50.892;4.702;2024-03-08T02:35:38;25.37;;;13.73;;
30247;SDS011;17063;50.892;4.702;2024-03-08T02:38:05;21.50;;;12.63;;
30247;SDS011;17063;50.892;4.702;2024-03-08T02:40:32;28.53;;;13.70;;
30247;SDS011;17063;50.892;4.702;2024-03-08T02:42:59;25.13;;;13.47;;
30247;SDS011;17063;50.892;4.702;2024-03-08T02:45:27;24.13;;;13.63;;
30247;SDS011;17063;50.892;4.702;2024-03-08T02:47:54;22.90;;;13.57;;
30247;SDS011;17063;50.892;4.702;2024-03-08T02:50:21;26.03;;;13.47;;
30247;SDS011;17063;50.892;4.702;2024-03-08T02:52:48;25.10;;;13.97;;
30247;SDS011;17063;50.892;4.702;2024-03-08T02:55:15;35.03;;;14.30;;
30247;SDS011;17063;50.892;4.702;2024-03-08T02:57:43;23.50;;;13.00;;
30247;SDS011;17063;50.892;4.702;2024-03-08T03:00:10;29.53;;;14.70;;
30247;SDS011;17063;50.892;4.702;2024-03-08T03:02:37;23.97;;;13.57;;
30247;SDS011;17063;50.892;4.702;2024-03-08T03:05:05;24.27;;;13.70;;
30247;SDS011;17063;50.892;4.702;2024-03-08T03:07:32;22.33;;;13.20;;
30247;SDS011;17063;50.892;4.702;2024-03-08T03:10:00;25.37;;;14.37;;
30247;SDS011;17063;50.892;4.702;2024-03-08T03:12:28;23.87;;;14.23;;
30247;SDS011;17063;50.892;4.702;2024-03-08T03:14:56;24.37;;;13.13;;
30247;SDS011;17063;50.892;4.702;2024-03-08T03:17:23;25.10;;;14.13;;
30247;SDS011;17063;50.892;4.702;2024-03-08T03:19:51;29.57;;;14.07;;
30247;SDS011;17063;50.892;4.702;2024-03-08T03:22:19;24.17;;;13.63;;
30247;SDS011;17063;50.892;4.702;2024-03-08T03:24:46;25.07;;;14.80;;
30247;SDS011;17063;50.892;4.702;2024-03-08T03:27:14;23.47;;;14.17;;
30247;SDS011;17063;50.892;4.702;2024-03-08T03:29:42;27.03;;;13.53;;
30247;SDS011;17063;50.892;4.702;2024-03-08T03:32:12;26.63;;;14.27;;
30247;SDS011;17063;50.892;4.702;2024-03-08T03:34:40;25.27;;;14.40;;
30247;SDS011;17063;50.892;4.702;2024-03-08T03:37:07;26.07;;;14.50;;
30247;SDS011;17063;50.892;4.702;2024-03-08T03:39:40;22.87;;;14.27;;
30247;SDS011;17063;50.892;4.702;2024-03-08T03:42:16;24.00;;;13.87;;
30247;SDS011;17063;50.892;4.702;2024-03-08T03:44:46;22.23;;;13.80;;
30247;SDS011;17063;50.892;4.702;2024-03-08T03:47:14;26.43;;;14.23;;
30247;SDS011;17063;50.892;4.702;2024-03-08T03:49:42;32.17;;;14.93;;
30247;SDS011;17063;50.892;4.702;2024-03-08T03:52:09;26.50;;;15.53;;
30247;SDS011;17063;50.892;4.702;2024-03-08T03:54:36;23.37;;;13.73;;
30247;SDS011;17063;50.892;4.702;2024-03-08T03:57:03;28.13;;;14.70;;
30247;SDS011;17063;50.892;4.702;2024-03-08T03:59:31;28.80;;;13.53;;
30247;SDS011;17063;50.892;4.702;2024-03-08T04:01:59;25.63;;;13.77;;
30247;SDS011;17063;50.892;4.702;2024-03-08T04:04:26;26.27;;;14.73;;
30247;SDS011;17063;50.892;4.702;2024-03-08T04:06:53;25.73;;;14.03;;
30247;SDS011;17063;50.892;4.702;2024-03-08T04:09:19;25.33;;;14.18;;
30247;SDS011;17063;50.892;4.702;2024-03-08T04:11:49;28.13;;;14.93;;
30247;SDS011;17063;50.892;4.702;2024-03-08T04:14:19;24.37;;;13.60;;
30247;SDS011;17063;50.892;4.702;2024-03-08T04:16:47;33.20;;;14.80;;
30247;SDS011;17063;50.892;4.702;2024-03-08T04:19:14;22.53;;;13.30;;
30247;SDS011;17063;50.892;4.702;2024-03-08T04:21:41;25.50;;;14.13;;
30247;SDS011;17063;50.892;4.702;2024-03-08T04:24:08;23.53;;;13.77;;
30247;SDS011;17063;50.892;4.702;2024-03-08T04:26:35;27.50;;;14.33;;
30247;SDS011;17063;50.892;4.702;2024-03-08T04:29:03;26.33;;;13.82;;
30247;SDS011;17063;50.892;4.702;2024-03-08T04:31:29;27.53;;;14.77;;
30247;SDS011;17063;50.892;4.702;2024-03-08T04:33:57;32.90;;;15.13;;
30247;SDS011;17063;50.892;4.702;2024-03-08T04:36:25;28.70;;;15.13;;
30247;SDS011;17063;50.892;4.702;2024-03-08T04:38:52;27.53;;;14.43;;
30247;SDS011;17063;50.892;4.702;2024-03-08T04:41:19;35.50;;;14.20;;
30247;SDS011;17063;50.892;4.702;2024-03-08T04:43:46;22.43;;;13.17;;
30247;SDS011;17063;50.892;4.702;2024-03-08T04:46:14;27.47;;;15.70;;
30247;SDS011;17063;50.892;4.702;2024-03-08T04:48:41;24.07;;;13.47;;
30247;SDS011;17063;50.892;4.702;2024-03-08T04:51:09;23.70;;;13.37;;
30247;SDS011;17063;50.892;4.702;2024-03-08T04:53:36;24.20;;;13.97;;
30247;SDS011;17063;50.892;4.702;2024-03-08T04:56:03;24.10;;;14.30;;
30247;SDS011;17063;50.892;4.702;2024-03-08T04:58:35;24.10;;;13.80;;
30247;SDS011;17063;50.892;4.702;2024-03-08T05:01:02;30.93;;;14.03;;
30247;SDS011;17063;50.892;4.702;2024-03-08T05:03:29;24.60;;;13.77;;
30247;SDS011;17063;50.892;4.702;2024-03-08T05:05:56;25.23;;;13.80;;
30247;SDS011;17063;50.892;4.702;2024-03-08T05:08:23;26.60;;;14.37;;
30247;SDS011;17063;50.892;4.702;2024-03-08T05:10:50;25.23;;;13.47;;
30247;SDS011;17063;50.892;4.702;2024-03-08T05:13:18;29.23;;;14.50;;
30247;SDS011;17063;50.892;4.702;2024-03-08T05:15:48;33.37;;;14.90;;
30247;SDS011;17063;50.892;4.702;2024-03-08T05:18:18;27.87;;;14.63;;
30247;SDS011;17063;50.892;4.702;2024-03-08T05:20:45;28.63;;;14.60;;
30247;SDS011;17063;50.892;4.702;2024-03-08T05:23:13;24.80;;;13.57;;
30247;SDS011;17063;50.892;4.702;2024-03-08T05:25:40;26.65;;;13.98;;
30247;SDS011;17063;50.892;4.702;2024-03-08T05:28:08;25.43;;;13.80;;
30247;SDS011;17063;50.892;4.702;2024-03-08T05:30:35;26.40;;;13.77;;
30247;SDS011;17063;50.892;4.702;2024-03-08T05:33:02;30.98;;;14.88;;
30247;SDS011;17063;50.892;4.702;2024-03-08T05:35:30;24.60;;;13.90;;
30247;SDS011;17063;50.892;4.702;2024-03-08T05:37:59;26.75;;;14.10;;
30247;SDS011;17063;50.892;4.702;2024-03-08T05:40:26;26.70;;;14.50;;
30247;SDS011;17063;50.892;4.702;2024-03-08T05:42:53;24.57;;;14.23;;
30247;SDS011;17063;50.892;4.702;2024-03-08T05:45:20;28.03;;;14.80;;
30247;SDS011;17063;50.892;4.702;2024-03-08T05:47:47;27.60;;;15.10;;
30247;SDS011;17063;50.892;4.702;2024-03-08T05:50:16;28.13;;;14.47;;
30247;SDS011;17063;50.892;4.702;2024-03-08T05:55:37;22.80;;;13.70;;
30247;SDS011;17063;50.892;4.702;2024-03-08T05:58:08;26.90;;;14.10;;
30247;SDS011;17063;50.892;4.702;2024-03-08T06:03:28;26.37;;;14.50;;
30247;SDS011;17063;50.892;4.702;2024-03-08T06:05:55;24.53;;;13.47;;
30247;SDS011;17063;50.892;4.702;2024-03-08T06:08:23;28.33;;;13.77;;
30247;SDS011;17063;50.892;4.702;2024-03-08T06:10:50;30.00;;;13.90;;
30247;SDS011;17063;50.892;4.702;2024-03-08T06:13:19;30.20;;;14.20;;
30247;SDS011;17063;50.892;4.702;2024-03-08T06:15:46;25.50;;;14.05;;
30247;SDS011;17063;50.892;4.702;2024-03-08T06:18:13;37.57;;;14.37;;
30247;SDS011;17063;50.892;4.702;2024-03-08T06:20:41;29.77;;;13.80;;
30247;SDS011;17063;50.892;4.702;2024-03-08T06:23:10;26.07;;;14.23;;
30247;SDS011;17063;50.892;4.702;2024-03-08T06:25:37;24.97;;;14.50;;
30247;SDS011;17063;50.892;4.702;2024-03-08T06:28:04;33.15;;;16.17;;
30247;SDS011;17063;50.892;4.702;2024-03-08T06:30:32;26.02;;;14.23;;
30247;SDS011;17063;50.892;4.702;2024-03-08T06:33:01;27.08;;;14.27;;
30247;SDS011;17063;50.892;4.702;2024-03-08T06:35:29;31.08;;;14.80;;
30247;SDS011;17063;50.892;4.702;2024-03-08T06:37:58;27.35;;;14.68;;
30247;SDS011;17063;50.892;4.702;2024-03-08T06:40:26;26.30;;;14.50;;
30247;SDS011;17063;50.892;4.702;2024-03-08T06:42:53;28.53;;;14.07;;
30247;SDS011;17063;50.892;4.702;2024-03-08T06:45:20;26.23;;;14.43;;
30247;SDS011;17063;50.892;4.702;2024-03-08T06:47:47;26.23;;;13.70;;
30247;SDS011;17063;50.892;4.702;2024-03-08T06:50:15;33.17;;;15.23;;
30247;SDS011;17063;50.892;4.702;2024-03-08T06:52:42;28.33;;;14.63;;
30247;SDS011;17063;50.892;4.702;2024-03-08T06:55:10;26.47;;;13.90;;
30247;SDS011;17063;50.892;4.702;2024-03-08T06:57:40;29.87;;;14.27;;
30247;SDS011;17063;50.892;4.702;2024-03-08T07:00:08;29.03;;;14.53;;
30247;SDS011;17063;50.892;4.702;2024-03-08T07:02:42;26.30;;;13.77;;
30247;SDS011;17063;50.892;4.702;2024-03-08T07:05:09;27.97;;;14.53;;
30247;SDS011;17063;50.892;4.702;2024-03-08T07:07:37;25.83;;;13.90;;
30247;SDS011;17063;50.892;4.702;2024-03-08T07:10:04;24.40;;;13.20;;
30247;SDS011;17063;50.892;4.702;2024-03-08T07:12:32;26.37;;;12.93;;
30247;SDS011;17063;50.892;4.702;2024-03-08T07:14:59;26.83;;;14.57;;
30247;SDS011;17063;50.892;4.702;2024-03-08T07:17:31;27.88;;;13.85;;
30247;SDS011;17063;50.892;4.702;2024-03-08T07:20:01;27.02;;;13.20;;
30247;SDS011;17063;50.892;4.702;2024-03-08T07:22:34;28.37;;;14.80;;
30247;SDS011;17063;50.892;4.702;2024-03-08T07:25:06;31.03;;;14.47;;
30247;SDS011;17063;50.892;4.702;2024-03-08T07:27:36;34.25;;;13.80;;
30247;SDS011;17063;50.892;4.702;2024-03-08T07:30:04;25.67;;;13.07;;
30247;SDS011;17063;50.892;4.702;2024-03-08T07:32:34;28.90;;;13.67;;
30247;SDS011;17063;50.892;4.702;2024-03-08T07:35:02;26.63;;;14.03;;
30247;SDS011;17063;50.892;4.702;2024-03-08T07:37:30;27.70;;;13.27;;
30247;SDS011;17063;50.892;4.702;2024-03-08T07:39:58;29.83;;;14.37;;
30247;SDS011;17063;50.892;4.702;2024-03-08T07:42:25;24.07;;;12.90;;
30247;SDS011;17063;50.892;4.702;2024-03-08T07:44:52;25.80;;;13.43;;
30247;SDS011;17063;50.892;4.702;2024-03-08T07:47:19;28.10;;;13.97;;
30247;SDS011;17063;50.892;4.702;2024-03-08T07:49:50;26.67;;;13.27;;
30247;SDS011;17063;50.892;4.702;2024-03-08T07:52:18;27.40;;;13.20;;
30247;SDS011;17063;50.892;4.702;2024-03-08T07:54:45;30.33;;;13.87;;
30247;SDS011;17063;50.892;4.702;2024-03-08T07:57:12;25.93;;;14.20;;
30247;SDS011;17063;50.892;4.702;2024-03-08T07:59:39;23.87;;;12.17;;
30247;SDS011;17063;50.892;4.702;2024-03-08T08:02:06;25.47;;;12.70;;
30247;SDS011;17063;50.892;4.702;2024-03-08T08:04:33;24.77;;;12.07;;
30247;SDS011;17063;50.892;4.702;2024-03-08T08:07:00;26.67;;;12.57;;
30247;SDS011;17063;50.892;4.702;2024-03-08T08:09:28;22.57;;;11.73;;
30247;SDS011;17063;50.892;4.702;2024-03-08T08:11:55;25.33;;;12.97;;
30247;SDS011;17063;50.892;4.702;2024-03-08T08:14:22;27.00;;;13.47;;
30247;SDS011;17063;50.892;4.702;2024-03-08T08:16:49;24.50;;;12.47;;
30247;SDS011;17063;50.892;4.702;2024-03-08T08:19:19;25.87;;;11.80;;
30247;SDS011;17063;50.892;4.702;2024-03-08T08:21:47;24.83;;;12.20;;
30247;SDS011;17063;50.892;4.702;2024-03-08T08:24:14;19.30;;;12.00;;
30247;SDS011;17063;50.892;4.702;2024-03-08T08:26:41;27.97;;;12.30;;
30247;SDS011;17063;50.892;4.702;2024-03-08T08:29:08;27.60;;;12.70;;
30247;SDS011;17063;50.892;4.702;2024-03-08T08:31:35;24.53;;;12.00;;
30247;SDS011;17063;50.892;4.702;2024-03-08T08:34:03;20.87;;;12.20;;
30247;SDS011;17063;50.892;4.702;2024-03-08T08:36:30;23.40;;;13.33;;
30247;SDS011;17063;50.892;4.702;2024-03-08T08:38:57;22.00;;;12.70;;
30247;SDS011;17063;50.892;4.702;2024-03-08T08:41:26;24.13;;;12.47;;
30247;SDS011;17063;50.892;4.702;2024-03-08T08:43:53;22.77;;;12.20;;
30247;SDS011;17063;50.892;4.702;2024-03-08T08:46:34;22.43;;;12.70;;
30247;SDS011;17063;50.892;4.702;2024-03-08T08:49:07;23.47;;;12.60;;
30247;SDS011;17063;50.892;4.702;2024-03-08T08:51:37;25.40;;;12.57;;
30247;SDS011;17063;50.892;4.702;2024-03-08T08:54:05;23.80;;;12.13;;
30247;SDS011;17063;50.892;4.702;2024-03-08T08:56:37;27.93;;;12.67;;
30247;SDS011;17063;50.892;4.702;2024-03-08T08:59:04;19.60;;;11.20;;
30247;SDS011;17063;50.892;4.702;2024-03-08T09:01:31;24.50;;;12.17;;
30247;SDS011;17063;50.892;4.702;2024-03-08T09:03:59;26.20;;;12.67;;
30247;SDS011;17063;50.892;4.702;2024-03-08T09:06:26;20.80;;;11.63;;
30247;SDS011;17063;50.892;4.702;2024-03-08T09:08:53;20.37;;;11.93;;
30247;SDS011;17063;50.892;4.702;2024-03-08T09:11:20;23.53;;;12.00;;
30247;SDS011;17063;50.892;4.702;2024-03-08T09:13:47;20.43;;;11.40;;
30247;SDS011;17063;50.892;4.702;2024-03-08T09:16:15;20.83;;;12.17;;
30247;SDS011;17063;50.892;4.702;2024-03-08T09:18:42;21.80;;;12.37;;
30247;SDS011;17063;50.892;4.702;2024-03-08T09:21:09;23.53;;;12.53;;
30247;SDS011;17063;50.892;4.702;2024-03-08T09:23:36;23.53;;;11.67;;
30247;SDS011;17063;50.892;4.702;2024-03-08T09:26:03;24.57;;;12.13;;
30247;SDS011;17063;50.892;4.702;2024-03-08T09:28:38;20.10;;;11.57;;
30247;SDS011;17063;50.892;4.702;2024-03-08T09:31:05;22.03;;;11.80;;
30247;SDS011;17063;50.892;4.702;2024-03-08T09:33:33;22.83;;;11.83;;
30247;SDS011;17063;50.892;4.702;2024-03-08T09:36:01;22.73;;;11.80;;
30247;SDS011;17063;50.892;4.702;2024-03-08T09:38:30;22.50;;;11.77;;
30247;SDS011;17063;50.892;4.702;2024-03-08T09:40:57;22.30;;;10.97;;
30247;SDS011;17063;50.892;4.702;2024-03-08T09:43:25;18.43;;;10.10;;
30247;SDS011;17063;50.892;4.702;2024-03-08T09:45:52;20.33;;;11.30;;
30247;SDS011;17063;50.892;4.702;2024-03-08T09:48:19;20.43;;;11.63;;
30247;SDS011;17063;50.892;4.702;2024-03-08T09:50:46;19.03;;;10.97;;
30247;SDS011;17063;50.892;4.702;2024-03-08T09:53:15;19.90;;;11.27;;
30247;SDS011;17063;50.892;4.702;2024-03-08T09:55:43;23.27;;;12.13;;
30247;SDS011;17063;50.892;4.702;2024-03-08T09:58:12;23.83;;;12.27;;
30247;SDS011;17063;50.892;4.702;2024-03-08T10:00:57;18.60;;;10.70;;
30247;SDS011;17063;50.892;4.702;2024-03-08T10:03:24;21.30;;;11.83;;
30247;SDS011;17063;50.892;4.702;2024-03-08T10:05:55;20.83;;;10.83;;
30247;SDS011;17063;50.892;4.702;2024-03-08T10:08:29;20.40;;;10.40;;
30247;SDS011;17063;50.892;4.702;2024-03-08T10:10:56;24.07;;;11.17;;
30247;SDS011;17063;50.892;4.702;2024-03-08T10:13:25;22.23;;;10.67;;
30247;SDS011;17063;50.892;4.702;2024-03-08T10:15:55;17.00;;;10.80;;
30247;SDS011;17063;50.892;4.702;2024-03-08T10:18:22;20.93;;;10.50;;
30247;SDS011;17063;50.892;4.702;2024-03-08T10:21:02;18.97;;;10.80;;
30247;SDS011;17063;50.892;4.702;2024-03-08T10:23:31;19.07;;;10.30;;
30247;SDS011;17063;50.892;4.702;2024-03-08T10:26:09;17.33;;;9.47;;
30247;SDS011;17063;50.892;4.702;2024-03-08T10:28:39;20.00;;;11.30;;
30247;SDS011;17063;50.892;4.702;2024-03-08T10:31:07;22.20;;;10.43;;
30247;SDS011;17063;50.892;4.702;2024-03-08T10:33:34;18.00;;;10.20;;
30247;SDS011;17063;50.892;4.702;2024-03-08T10:36:01;17.33;;;10.20;;
30247;SDS011;17063;50.892;4.702;2024-03-08T10:38:30;18.10;;;9.53;;
30247;SDS011;17063;50.892;4.702;2024-03-08T10:41:00;18.77;;;10.70;;
30247;SDS011;17063;50.892;4.702;2024-03-08T10:43:28;21.63;;;11.13;;
30247;SDS011;17063;50.892;4.702;2024-03-08T10:46:15;21.23;;;10.60;;
30247;SDS011;17063;50.892;4.702;2024-03-08T10:48:50;20.47;;;12.10;;
30247;SDS011;17063;50.892;4.702;2024-03-08T10:51:19;18.07;;;10.77;;
30247;SDS011;17063;50.892;4.702;2024-03-08T10:53:46;22.17;;;11.50;;
30247;SDS011;17063;50.892;4.702;2024-03-08T10:56:14;20.63;;;11.20;;
30247;SDS011;17063;50.892;4.702;2024-03-08T10:58:41;18.60;;;10.83;;
30247;SDS011;17063;50.892;4.702;2024-03-08T11:01:11;16.93;;;9.93;;
30247;SDS011;17063;50.892;4.702;2024-03-08T11:06:15;17.63;;;10.43;;
30247;SDS011;17063;50.892;4.702;2024-03-08T11:08:43;22.13;;;10.47;;
30247;SDS011;17063;50.892;4.702;2024-03-08T11:11:30;21.07;;;11.20;;
30247;SDS011;17063;50.892;4.702;2024-03-08T11:14:01;21.77;;;10.80;;
30247;SDS011;17063;50.892;4.702;2024-03-08T11:18:59;19.03;;;10.57;;
30247;SDS011;17063;50.892;4.702;2024-03-08T11:21:33;20.40;;;10.33;;
30247;SDS011;17063;50.892;4.702;2024-03-08T11:24:00;19.00;;;10.50;;
30247;SDS011;17063;50.892;4.702;2024-03-08T11:26:28;17.30;;;10.80;;
30247;SDS011;17063;50.892;4.702;2024-03-08T11:32:12;18.77;;;10.37;;
30247;SDS011;17063;50.892;4.702;2024-03-08T11:34:42;22.90;;;10.40;;
30247;SDS011;17063;50.892;4.702;2024-03-08T11:37:11;23.13;;;11.60;;
30247;SDS011;17063;50.892;4.702;2024-03-08T11:39:49;19.37;;;11.10;;
30247;SDS011;17063;50.892;4.702;2024-03-08T11:42:18;20.47;;;11.33;;
30247;SDS011;17063;50.892;4.702;2024-03-08T11:44:46;20.73;;;11.50;;
30247;SDS011;17063;50.892;4.702;2024-03-08T11:47:14;21.23;;;11.97;;
30247;SDS011;17063;50.892;4.702;2024-03-08T11:49:43;20.17;;;10.60;;
30247;SDS011;17063;50.892;4.702;2024-03-08T11:52:16;17.80;;;10.10;;
30247;SDS011;17063;50.892;4.702;2024-03-08T11:54:53;19.43;;;10.10;;
30247;SDS011;17063;50.892;4.702;2024-03-08T11:57:24;17.40;;;10.17;;
30247;SDS011;17063;50.892;4.702;2024-03-08T11:59:54;17.53;;;9.77;;
30247;SDS011;17063;50.892;4.702;2024-03-08T12:02:24;20.07;;;10.00;;
30247;SDS011;17063;50.892;4.702;2024-03-08T12:04:58;19.07;;;10.30;;
30247;SDS011;17063;50.892;4.702;2024-03-08T12:07:27;19.27;;;10.70;;
30247;SDS011;17063;50.892;4.702;2024-03-08T12:12:49;19.60;;;10.43;;
30247;SDS011;17063;50.892;4.702;2024-03-08T12:15:20;18.50;;;11.03;;
30247;SDS011;17063;50.892;4.702;2024-03-08T12:17:52;17.33;;;10.03;;
30247;SDS011;17063;50.892;4.702;2024-03-08T12:20:21;19.07;;;10.70;;
30247;SDS011;17063;50.892;4.702;2024-03-08T12:22:58;19.13;;;10.13;;
30247;SDS011;17063;50.892;4.702;2024-03-08T12:25:30;18.37;;;10.07;;
30247;SDS011;17063;50.892;4.702;2024-03-08T12:28:07;20.67;;;10.67;;
30247;SDS011;17063;50.892;4.702;2024-03-08T12:30:46;18.73;;;9.57;;
30247;SDS011;17063;50.892;4.702;2024-03-08T12:33:15;18.53;;;9.43;;
30247;SDS011;17063;50.892;4.702;2024-03-08T12:35:53;16.53;;;10.07;;
30247;SDS011;17063;50.892;4.702;2024-03-08T12:38:22;18.93;;;11.10;;
30247;SDS011;17063;50.892;4.702;2024-03-08T12:40:59;17.70;;;9.63;;
30247;SDS011;17063;50.892;4.702;2024-03-08T12:43:27;18.77;;;9.93;;
30247;SDS011;17063;50.892;4.702;2024-03-08T12:45:58;17.60;;;9.93;;
30247;SDS011;17063;50.892;4.702;2024-03-08T12:48:25;20.67;;;10.67;;
30247;SDS011;17063;50.892;4.702;2024-03-08T12:50:52;16.13;;;9.40;;
30247;SDS011;17063;50.892;4.702;2024-03-08T12:53:21;16.73;;;10.27;;
30247;SDS011;17063;50.892;4.702;2024-03-08T12:55:49;16.40;;;9.30;;
30247;SDS011;17063;50.892;4.702;2024-03-08T12:58:16;19.57;;;10.50;;
30247;SDS011;17063;50.892;4.702;2024-03-08T13:00:44;17.20;;;9.50;;
30247;SDS011;17063;50.892;4.702;2024-03-08T13:03:11;16.30;;;10.00;;
30247;SDS011;17063;50.892;4.702;2024-03-08T13:05:38;17.83;;;10.00;;
30247;SDS011;17063;50.892;4.702;2024-03-08T13:08:09;22.53;;;11.00;;
30247;SDS011;17063;50.892;4.702;2024-03-08T13:10:39;18.50;;;10.40;;
30247;SDS011;17063;50.892;4.702;2024-03-08T13:13:11;19.83;;;9.27;;
30247;SDS011;17063;50.892;4.702;2024-03-08T13:15:44;17.80;;;10.57;;
30247;SDS011;17063;50.892;4.702;2024-03-08T13:18:11;19.47;;;10.87;;
30247;SDS011;17063;50.892;4.702;2024-03-08T13:20:39;15.63;;;9.80;;
30247;SDS011;17063;50.892;4.702;2024-03-08T13:23:13;16.40;;;10.33;;
30247;SDS011;17063;50.892;4.702;2024-03-08T13:25:40;18.23;;;10.63;;
30247;SDS011;17063;50.892;4.702;2024-03-08T13:28:08;21.63;;;10.27;;
30247;SDS011;17063;50.892;4.702;2024-03-08T13:30:35;19.97;;;11.10;;
30247;SDS011;17063;50.892;4.702;2024-03-08T13:33:03;21.87;;;10.33;;
30247;SDS011;17063;50.892;4.702;2024-03-08T13:35:31;16.20;;;10.03;;
30247;SDS011;17063;50.892;4.702;2024-03-08T13:37:59;19.70;;;10.23;;
30247;SDS011;17063;50.892;4.702;2024-03-08T13:40:29;18.47;;;9.70;;
30247;SDS011;17063;50.892;4.702;2024-03-08T13:42:57;17.03;;;10.10;;
30247;SDS011;17063;50.892;4.702;2024-03-08T13:45:28;16.97;;;10.27;;
30247;SDS011;17063;50.892;4.702;2024-03-08T13:47:55;16.63;;;9.93;;
30247;SDS011;17063;50.892;4.702;2024-03-08T13:50:22;20.40;;;9.30;;
30247;SDS011;17063;50.892;4.702;2024-03-08T13:52:50;19.77;;;10.63;;
30247;SDS011;17063;50.892;4.702;2024-03-08T13:55:20;15.53;;;8.87;;
30247;SDS011;17063;50.892;4.702;2024-03-08T13:57:48;19.53;;;10.33;;
30247;SDS011;17063;50.892;4.702;2024-03-08T14:00:18;19.63;;;9.90;;
30247;SDS011;17063;50.892;4.702;2024-03-08T14:02:49;19.43;;;9.67;;
30247;SDS011;17063;50.892;4.702;2024-03-08T14:05:16;16.73;;;10.30;;
30247;SDS011;17063;50.892;4.702;2024-03-08T14:07:45;18.60;;;10.17;;
30247;SDS011;17063;50.892;4.702;2024-03-08T14:10:16;16.87;;;9.87;;
30247;SDS011;17063;50.892;4.702;2024-03-08T14:12:47;18.73;;;10.03;;
30247;SDS011;17063;50.892;4.702;2024-03-08T14:15:17;18.17;;;10.47;;
30247;SDS011;17063;50.892;4.702;2024-03-08T14:17:51;16.50;;;10.10;;
30247;SDS011;17063;50.892;4.702;2024-03-08T14:20:19;18.80;;;9.83;;
30247;SDS011;17063;50.892;4.702;2024-03-08T14:22:46;15.83;;;8.83;;
30247;SDS011;17063;50.892;4.702;2024-03-08T14:25:13;19.30;;;9.30;;
30247;SDS011;17063;50.892;4.702;2024-03-08T14:27:44;15.87;;;9.63;;
30247;SDS011;17063;50.892;4.702;2024-03-08T14:30:13;23.00;;;9.73;;
30247;SDS011;17063;50.892;4.702;2024-03-08T14:32:40;14.23;;;9.13;;
30247;SDS011;17063;50.892;4.702;2024-03-08T14:35:08;15.97;;;9.43;;
30247;SDS011;17063;50.892;4.702;2024-03-08T14:37:37;13.37;;;8.70;;
30247;SDS011;17063;50.892;4.702;2024-03-08T14:40:04;16.00;;;9.27;;
30247;SDS011;17063;50.892;4.702;2024-03-08T14:42:32;17.70;;;10.23;;
30247;SDS011;17063;50.892;4.702;2024-03-08T14:44:59;18.50;;;9.23;;
30247;SDS011;17063;50.892;4.702;2024-03-08T14:47:26;20.23;;;9.90;;
30247;SDS011;17063;50.892;4.702;2024-03-08T14:49:55;19.90;;;9.63;;